This is the latest recevied weather packets stored in our database for station/object PP5MGT-13. If no packets are shown the sender has not sent any weather packets the latest 10 day(s).
| Time | Temp. | Humidity | Pressure | Rain* | Wind** | Luminosity | Snow |
|---|---|---|---|---|---|---|---|
| 1777025905 | 18.89° C | 89% | 1019.7 hPa | - | - | - | - |
| 1777024103 | 18.89° C | 92% | 1019.1 hPa | - | - | - | - |
| 1777023202 | 18.89° C | 92% | 1019 hPa | - | - | - | - |
| 1777022301 | 18.89° C | 91% | 1018.9 hPa | - | - | - | - |
| 1777020500 | 18.89° C | 93% | 1018.4 hPa | - | - | - | - |
| 1777019599 | 18.89° C | 94% | 1018.3 hPa | - | - | - | - |
| 1777018698 | 18.89° C | 94% | 1018.1 hPa | - | - | - | - |
| 1777016895 | 18.89° C | 93% | 1018 hPa | - | - | - | - |
| 1777015994 | 18.89° C | 93% | 1018.1 hPa | - | - | - | - |
| 1777015093 | 18.33° C | 93% | 1018.1 hPa | - | - | - | - |
| 1777013291 | 18.33° C | 94% | 1018.3 hPa | - | - | - | - |
| 1777012390 | 18.33° C | 94% | 1018.4 hPa | - | - | - | - |
| 1777011489 | 18.33° C | 94% | 1018.4 hPa | - | - | - | - |
| 1777009687 | 18.89° C | 93% | 1018.7 hPa | - | - | - | - |
| 1777008786 | 18.89° C | 93% | 1018.7 hPa | - | - | - | - |
| 1777007884 | 18.89° C | 93% | 1018.7 hPa | - | - | - | - |
| 1777006083 | 19.44° C | 92% | 1019.2 hPa | - | - | - | - |
| 1777005182 | 19.44° C | 92% | 1019.2 hPa | - | - | - | - |
| 1777004281 | 19.44° C | 92% | 1019.3 hPa | - | - | - | - |
| 1777002480 | 20° C | 91% | 1019.8 hPa | - | - | - | - |
| 1777001579 | 20° C | 91% | 1019.9 hPa | - | - | - | - |
| 1777000678 | 20° C | 91% | 1020 hPa | - | - | - | - |
| 1776998876 | 21.11° C | 87% | 1020.2 hPa | - | - | - | - |
| 1776997976 | 21.11° C | 86% | 1020.3 hPa | - | - | - | - |
* Rain since midnight (hover to see other rain measurements)
** Current wind speed in m/s (hover to see current wind gust speed)